createdAt,value
2022-12-08T00:03:41.228Z,972.69
2022-12-08T00:11:05.461Z,972.66
2022-12-08T00:18:49.088Z,972.57
2022-12-08T00:26:32.896Z,972.48
2022-12-08T00:33:48.653Z,972.37
2022-12-08T00:41:03.502Z,972.31
2022-12-08T00:48:38.050Z,972.25
2022-12-08T00:56:27.646Z,972.15
2022-12-08T01:03:44.850Z,972.09
2022-12-08T01:11:22.274Z,972.04
2022-12-08T01:18:41.237Z,972.01
2022-12-08T01:26:03.171Z,971.95
2022-12-08T01:33:34.205Z,971.96
2022-12-08T01:40:59.517Z,972
2022-12-08T01:48:44.751Z,971.94
2022-12-08T01:56:38.362Z,971.91
2022-12-08T02:04:30.815Z,971.83
2022-12-08T02:11:56.964Z,971.82
2022-12-08T02:19:32.849Z,971.76
2022-12-08T02:27:25.449Z,971.78
2022-12-08T02:35:19.020Z,971.7
2022-12-08T02:43:12.547Z,971.59
2022-12-08T02:51:12.999Z,971.5
2022-12-08T02:59:02.505Z,971.43
2022-12-08T03:07:01.360Z,971.34
2022-12-08T03:15:09.000Z,971.28
2022-12-08T03:22:51.053Z,971.18
2022-12-08T03:30:52.485Z,971.12
2022-12-08T03:38:50.018Z,971.03
2022-12-08T03:53:53.259Z,970.94
2022-12-08T04:01:13.688Z,970.91
2022-12-08T04:08:18.818Z,970.8
2022-12-08T04:15:08.859Z,970.72
2022-12-08T04:21:48.029Z,970.73
2022-12-08T04:28:15.042Z,970.68
2022-12-08T04:34:40.055Z,970.61
2022-12-08T04:41:07.436Z,970.66
2022-12-08T04:47:37.071Z,970.68
2022-12-08T04:54:06.214Z,970.68
2022-12-08T05:00:35.098Z,970.62
2022-12-08T05:06:59.412Z,970.6
2022-12-08T05:13:32.090Z,970.59
2022-12-08T05:20:07.587Z,970.57
2022-12-08T05:26:32.708Z,970.54
2022-12-08T05:32:57.247Z,970.5
2022-12-08T05:39:37.624Z,970.41
2022-12-08T05:46:04.495Z,970.41
2022-12-08T05:52:35.595Z,970.39
2022-12-08T05:59:12.440Z,970.4
2022-12-08T06:05:38.380Z,970.37
2022-12-08T06:12:06.216Z,970.29
2022-12-08T06:18:33.992Z,970.34
2022-12-08T06:25:10.474Z,970.35
2022-12-08T06:31:45.415Z,970.31
2022-12-08T06:38:16.165Z,970.32
2022-12-08T06:44:42.331Z,970.26
2022-12-08T06:51:19.053Z,970.23
2022-12-08T06:57:47.044Z,970.25
2022-12-08T07:04:13.060Z,970.26
2022-12-08T07:10:41.314Z,970.24
2022-12-08T07:17:07.600Z,970.21
2022-12-08T07:23:30.057Z,970.2
2022-12-08T07:30:07.055Z,970.21
2022-12-08T07:36:39.117Z,970.18
2022-12-08T07:43:08.489Z,970.13
2022-12-08T07:49:37.327Z,970.11
2022-12-08T07:56:08.103Z,970.14
2022-12-08T08:02:40.955Z,970.15
2022-12-08T08:09:00.133Z,970.17
2022-12-08T08:15:29.880Z,970.17
2022-12-08T08:22:05.410Z,970.16
2022-12-08T08:28:43.625Z,970.17
2022-12-08T08:35:17.486Z,970.19
2022-12-08T08:41:50.360Z,970.2
2022-12-08T08:48:22.685Z,970.15
2022-12-08T08:54:51.477Z,970.11
2022-12-08T09:01:14.820Z,970.04
2022-12-08T09:07:40.752Z,970.01
2022-12-08T09:14:07.166Z,970.02
2022-12-08T09:20:36.159Z,969.97
2022-12-08T09:27:09.657Z,969.94
2022-12-08T09:33:38.127Z,970
2022-12-08T09:40:05.357Z,970.01
2022-12-08T09:46:58.626Z,970.02
2022-12-08T09:54:01.297Z,969.99
2022-12-08T10:00:49.175Z,969.89
2022-12-08T10:07:42.918Z,969.82
2022-12-08T10:14:51.030Z,969.75
2022-12-08T10:21:54.229Z,969.76
2022-12-08T10:28:46.257Z,969.75
2022-12-08T10:35:43.550Z,969.64
2022-12-08T10:42:42.415Z,969.64
2022-12-08T10:49:41.434Z,969.59
2022-12-08T10:56:32.612Z,969.48
2022-12-08T11:03:04.928Z,969.41
2022-12-08T11:09:55.113Z,969.37
2022-12-08T11:16:37.686Z,969.27
2022-12-08T11:23:51.129Z,969.19
2022-12-08T11:30:31.587Z,969.09
2022-12-08T11:37:40.840Z,969.01
2022-12-08T11:44:36.612Z,968.99
2022-12-08T11:51:42.458Z,969
2022-12-08T11:58:51.817Z,968.95
2022-12-08T12:06:09.076Z,968.86
2022-12-08T12:13:10.069Z,968.76
2022-12-08T12:20:16.996Z,968.74
2022-12-08T12:27:32.217Z,968.68
2022-12-08T12:34:49.170Z,968.67
2022-12-08T12:42:11.792Z,968.6
2022-12-08T12:49:11.580Z,968.52
2022-12-08T12:57:14.515Z,968.52
2022-12-08T13:05:41.327Z,968.45
2022-12-08T13:14:09.082Z,968.42
2022-12-08T13:22:15.667Z,968.37
2022-12-08T13:30:09.292Z,968.37
2022-12-08T13:38:24.291Z,968.32
2022-12-08T14:02:50.424Z,968.17
2022-12-08T14:10:46.519Z,968.25
2022-12-08T14:18:30.356Z,968.23
2022-12-08T14:25:59.951Z,968.2
2022-12-08T14:33:34.544Z,968.18
2022-12-08T14:41:20.363Z,968.26
2022-12-08T14:49:13.640Z,968.27
2022-12-08T14:57:11.862Z,968.33
2022-12-08T15:04:56.853Z,968.35
2022-12-08T15:12:42.100Z,968.36
2022-12-08T15:20:39.574Z,968.37
2022-12-08T15:28:16.376Z,968.37
2022-12-08T15:35:41.986Z,968.32
2022-12-08T15:43:05.672Z,968.28
2022-12-08T15:50:28.320Z,968.26
2022-12-08T15:58:51.571Z,968.26
2022-12-08T16:05:49.945Z,968.31
2022-12-08T16:21:51.980Z,968.21
2022-12-08T16:29:00.765Z,968.2
2022-12-08T16:36:30.929Z,968.15
2022-12-08T16:44:06.935Z,968.12
2022-12-08T16:52:00.009Z,968.09
2022-12-08T16:59:25.555Z,968.02
2022-12-08T17:06:57.231Z,967.94
2022-12-08T17:14:05.755Z,967.89
2022-12-08T17:21:24.389Z,967.87
2022-12-08T17:29:02.247Z,967.83
2022-12-08T17:36:33.192Z,967.82
2022-12-08T17:44:04.346Z,967.75
2022-12-08T17:51:40.370Z,967.69
2022-12-08T17:59:10.570Z,967.7
2022-12-08T18:06:32.361Z,967.76
2022-12-08T18:14:10.717Z,967.8
2022-12-08T18:21:35.631Z,967.79
2022-12-08T18:29:03.326Z,967.87
2022-12-08T18:36:21.674Z,967.86
2022-12-08T18:43:52.061Z,967.88
2022-12-08T18:51:15.225Z,967.87
2022-12-08T18:58:41.438Z,967.92
2022-12-08T19:06:03.518Z,967.93
2022-12-08T19:13:28.012Z,967.91
2022-12-08T19:21:02.913Z,967.84
2022-12-08T19:28:24.402Z,967.81
2022-12-08T19:35:49.039Z,967.73
2022-12-08T19:43:17.558Z,967.71
2022-12-08T19:50:42.502Z,967.62
2022-12-08T19:57:46.629Z,967.54
2022-12-08T20:04:54.006Z,967.51
2022-12-08T20:12:25.539Z,967.46
2022-12-08T20:19:48.750Z,967.38
2022-12-08T20:27:11.701Z,967.47
2022-12-08T20:34:24.017Z,967.5
2022-12-08T20:41:53.780Z,967.48
2022-12-08T20:49:11.922Z,967.49
2022-12-08T20:56:28.560Z,967.58
2022-12-08T21:03:44.928Z,967.58
2022-12-08T21:11:01.083Z,967.54
2022-12-08T21:18:16.633Z,967.57
2022-12-08T21:25:44.575Z,967.54
2022-12-08T21:33:03.390Z,967.53
2022-12-08T21:40:24.120Z,967.54
2022-12-08T21:47:44.761Z,967.54
2022-12-08T21:55:01.009Z,967.52
2022-12-08T22:02:25.775Z,967.56
2022-12-08T22:09:54.352Z,967.51
2022-12-08T22:17:27.324Z,967.48
2022-12-08T22:24:59.148Z,967.44
2022-12-08T22:32:37.702Z,967.47
2022-12-08T22:40:12.491Z,967.51
2022-12-08T22:47:43.380Z,967.42
2022-12-08T22:55:19.275Z,967.37
2022-12-08T23:02:59.538Z,967.31
2022-12-08T23:10:35.934Z,967.25
2022-12-08T23:18:12.105Z,967.23
2022-12-08T23:25:42.133Z,967.22
2022-12-08T23:33:14.799Z,967.19
2022-12-08T23:40:55.927Z,967.1
2022-12-08T23:48:23.057Z,967.05
2022-12-08T23:56:07.690Z,966.97
